createdAt,value
2023-01-26T00:00:25.836Z,1607.00
2023-01-26T00:39:34.961Z,1613.00
2023-01-26T00:40:35.239Z,1530.00
2023-01-26T00:41:35.421Z,1547.00
2023-01-26T01:21:45.098Z,841.00
2023-01-26T01:22:45.285Z,806.00
2023-01-26T01:23:45.612Z,653.00
2023-01-26T01:24:45.781Z,958.00
2023-01-26T01:25:45.995Z,1070.00
2023-01-26T01:26:46.324Z,1033.00
2023-01-26T01:27:46.511Z,1057.00
2023-01-26T01:28:46.824Z,1093.00
2023-01-26T01:29:47.033Z,994.00
2023-01-26T01:30:47.268Z,1127.00
2023-01-26T01:31:47.549Z,1197.00
2023-01-26T01:32:47.780Z,1118.00
2023-01-26T01:33:48.014Z,1083.00
2023-01-26T01:34:48.228Z,1052.00
2023-01-26T01:35:48.430Z,1120.00
2023-01-26T01:36:48.769Z,1114.00
2023-01-26T01:37:48.955Z,1089.00
2023-01-26T01:38:49.169Z,1179.00
2023-01-26T01:47:51.439Z,1605.00
2023-01-26T01:48:51.763Z,1579.00
2023-01-26T01:49:51.953Z,1596.00
2023-01-26T01:50:52.280Z,1644.00
2023-01-26T01:51:52.453Z,1675.00
2023-01-26T01:52:52.769Z,1774.00
2023-01-26T01:53:52.962Z,1791.00
2023-01-26T01:54:53.164Z,1772.00
2023-01-26T01:55:53.485Z,1772.00
2023-01-26T01:56:53.680Z,1730.00
2023-01-26T01:57:53.999Z,1759.00
2023-01-26T01:58:54.181Z,1791.00
2023-01-26T01:59:54.377Z,1766.00
2023-01-26T02:00:54.704Z,1746.00
2023-01-26T02:01:54.926Z,1764.00
2023-01-26T02:02:55.063Z,1672.00
2023-01-26T02:03:55.375Z,1436.00
2023-01-26T02:04:55.552Z,1266.00
2023-01-26T02:05:55.857Z,1015.00
2023-01-26T02:06:56.051Z,815.00
2023-01-26T02:07:56.251Z,709.00
2023-01-26T02:08:56.547Z,689.00
2023-01-26T02:09:56.738Z,777.00
2023-01-26T02:10:56.939Z,850.00
2023-01-26T02:11:57.268Z,1012.00
2023-01-26T02:12:57.473Z,1063.00
2023-01-26T02:13:57.681Z,873.00
2023-01-26T02:14:58.012Z,637.00
2023-01-26T02:15:58.280Z,593.00
2023-01-26T02:16:58.454Z,633.00
2023-01-26T02:17:58.677Z,861.00
2023-01-26T02:18:59.020Z,894.00
2023-01-26T02:19:59.267Z,931.00
2023-01-26T02:20:59.501Z,1377.00
2023-01-26T02:21:59.732Z,1319.00
2023-01-26T02:23:00.119Z,1222.00
2023-01-26T02:24:00.358Z,1336.00
2023-01-26T02:25:00.641Z,1406.00
2023-01-26T02:26:00.849Z,1387.00
2023-01-26T02:27:01.086Z,1268.00
2023-01-26T02:28:01.334Z,1315.00
2023-01-26T02:29:01.565Z,1312.00
2023-01-26T02:30:01.821Z,1293.00
2023-01-26T02:31:02.166Z,1231.00
2023-01-26T02:32:02.240Z,1301.00
2023-01-26T02:33:02.608Z,1393.00
2023-01-26T02:34:02.902Z,1500.00
2023-01-26T02:35:03.229Z,1508.00
2023-01-26T02:36:03.491Z,1412.00
2023-01-26T02:37:03.781Z,1296.00
2023-01-26T02:38:04.062Z,1114.00
2023-01-26T02:39:04.343Z,891.00
2023-01-26T02:40:04.633Z,796.00
2023-01-26T02:41:04.883Z,888.00
2023-01-26T02:42:05.147Z,919.00
2023-01-26T02:43:05.423Z,889.00
2023-01-26T02:44:05.691Z,873.00
2023-01-26T02:45:05.975Z,916.00
2023-01-26T02:46:06.293Z,920.00
2023-01-26T02:47:06.521Z,802.00
2023-01-26T02:48:06.802Z,708.00
2023-01-26T02:49:07.075Z,692.00
2023-01-26T02:50:07.354Z,714.00
2023-01-26T03:05:11.564Z,1156.00
2023-01-26T03:06:11.846Z,1078.00
2023-01-26T03:07:12.112Z,1011.00
2023-01-26T03:08:12.376Z,1047.00
2023-01-26T03:09:12.686Z,1017.00
2023-01-26T03:10:13.295Z,1032.00
2023-01-26T03:11:12.955Z,1038.00
2023-01-26T03:12:13.003Z,1141.00
2023-01-26T03:13:12.994Z,1110.00
2023-01-26T03:14:13.020Z,1002.00
2023-01-26T03:15:13.173Z,990.00
2023-01-26T03:16:13.537Z,963.00
2023-01-26T03:17:13.717Z,737.00
2023-01-26T03:18:13.933Z,603.00
2023-01-26T03:19:14.303Z,592.00
2023-01-26T03:20:14.580Z,580.00
2023-01-26T03:21:14.843Z,585.00
2023-01-26T03:22:15.097Z,603.00
2023-01-26T03:23:15.376Z,547.00
2023-01-26T03:24:15.643Z,503.00
2023-01-26T03:25:15.915Z,539.00
2023-01-26T03:27:16.464Z,539.00
2023-01-26T03:51:21.434Z,1152.00
2023-01-26T03:52:21.652Z,1198.00
2023-01-26T03:53:21.903Z,1251.00
2023-01-26T03:54:22.130Z,1306.00
2023-01-26T03:55:22.364Z,1367.00
2023-01-26T03:56:22.634Z,1405.00
2023-01-26T03:57:22.866Z,1373.00
2023-01-26T03:58:23.120Z,1325.00
2023-01-26T03:59:23.354Z,1220.00
2023-01-26T04:00:23.616Z,1258.00
2023-01-26T04:01:23.864Z,1319.00
2023-01-26T04:02:24.124Z,1483.00
2023-01-26T04:03:24.369Z,1557.00
2023-01-26T04:04:24.627Z,1634.00
2023-01-26T04:05:24.880Z,1640.00
2023-01-26T04:06:25.141Z,1634.00
2023-01-26T04:07:25.405Z,1674.00
2023-01-26T04:08:25.654Z,1743.00
2023-01-26T04:09:25.899Z,1692.00
2023-01-26T04:10:26.139Z,1682.00
2023-01-26T04:11:26.458Z,1723.00
2023-01-26T04:12:26.681Z,1611.00
2023-01-26T04:13:26.915Z,1594.00
2023-01-26T04:14:27.169Z,1585.00
2023-01-26T04:15:27.415Z,1577.00
2023-01-26T04:16:27.707Z,1496.00
2023-01-26T04:17:27.928Z,1453.00
2023-01-26T04:18:28.190Z,1400.00
2023-01-26T04:19:28.430Z,1295.00
2023-01-26T04:20:28.699Z,1184.00
2023-01-26T04:21:29.050Z,1046.00
2023-01-26T04:22:29.200Z,968.00
2023-01-26T04:23:29.459Z,872.00
2023-01-26T04:24:29.740Z,871.00
2023-01-26T04:25:29.980Z,869.00
2023-01-26T04:26:30.228Z,906.00
2023-01-26T04:27:30.504Z,877.00
2023-01-26T04:28:30.777Z,944.00
2023-01-26T04:29:31.051Z,1020.00
2023-01-26T04:30:31.347Z,1081.00
2023-01-26T04:31:31.675Z,966.00
2023-01-26T05:09:41.616Z,2313.00
2023-01-26T05:10:41.904Z,2266.00
2023-01-26T05:11:42.876Z,2295.00
2023-01-26T05:12:42.184Z,2403.00
2023-01-26T05:13:42.227Z,2487.00
2023-01-26T05:14:42.263Z,2473.00
2023-01-26T05:15:42.336Z,2424.00
2023-01-26T05:16:42.358Z,2375.00
2023-01-26T05:17:42.378Z,2347.00
2023-01-26T05:18:42.419Z,2322.00
2023-01-26T05:19:42.468Z,2332.00
2023-01-26T05:20:42.501Z,2382.00
2023-01-26T05:21:42.559Z,2411.00
2023-01-26T05:22:42.620Z,2571.00
2023-01-26T05:23:42.662Z,2677.00
2023-01-26T05:24:42.713Z,2641.00
2023-01-26T05:25:42.751Z,2465.00
2023-01-26T05:26:42.803Z,2571.00
2023-01-26T05:27:42.852Z,2673.00
2023-01-26T05:28:42.911Z,2790.00
2023-01-26T05:29:42.944Z,2883.00
2023-01-26T05:30:43.035Z,2973.00
2023-01-26T05:31:43.074Z,3478.00
2023-01-26T05:32:43.134Z,4814.00
2023-01-26T05:33:43.154Z,5453.00
2023-01-26T05:34:43.209Z,4998.00
2023-01-26T05:35:43.270Z,4499.00
2023-01-26T05:36:43.328Z,3712.00
2023-01-26T05:37:43.370Z,3386.00
2023-01-26T05:38:43.398Z,3246.00
2023-01-26T05:39:43.464Z,3173.00
2023-01-26T06:10:51.491Z,3555.00
2023-01-26T06:11:51.786Z,3391.00
2023-01-26T06:12:52.042Z,3389.00
2023-01-26T06:13:52.307Z,3545.00
2023-01-26T06:14:52.565Z,3621.00
2023-01-26T06:15:52.848Z,3516.00
2023-01-26T06:16:53.131Z,3518.00
2023-01-26T06:17:53.377Z,3616.00
2023-01-26T06:18:53.630Z,3659.00
2023-01-26T06:49:01.700Z,3526.00
2023-01-26T06:50:01.983Z,3567.00
2023-01-26T06:51:02.288Z,3539.00
2023-01-26T06:52:02.584Z,3491.00
2023-01-26T06:53:02.882Z,3441.00
2023-01-26T06:54:03.168Z,3393.00
2023-01-26T06:55:03.482Z,3371.00
2023-01-26T06:56:03.779Z,3345.00
2023-01-26T06:57:04.067Z,3345.00
2023-01-26T06:58:04.321Z,3383.00
2023-01-26T06:59:04.623Z,3655.00
2023-01-26T07:00:04.932Z,3624.00
2023-01-26T07:01:05.223Z,3522.00
2023-01-26T07:02:05.572Z,3471.00
2023-01-26T07:03:05.810Z,3416.00
2023-01-26T07:04:06.125Z,3354.00
2023-01-26T07:05:06.399Z,3166.00
2023-01-26T07:06:06.669Z,3260.00
2023-01-26T07:07:06.959Z,3253.00
2023-01-26T07:08:07.220Z,3272.00
2023-01-26T07:09:07.491Z,3288.00
2023-01-26T07:10:07.780Z,3500.00
2023-01-26T07:11:09.267Z,3605.00
2023-01-26T07:12:08.874Z,3680.00
2023-01-26T07:13:08.223Z,3752.00
2023-01-26T07:14:08.270Z,3947.00
2023-01-26T07:15:08.334Z,4052.00
2023-01-26T07:16:08.466Z,4078.00
2023-01-26T07:17:08.482Z,3997.00
2023-01-26T07:18:08.541Z,3954.00
2023-01-26T07:19:08.613Z,3916.00
2023-01-26T07:20:08.948Z,3959.00
2023-01-26T07:21:08.752Z,3998.00
2023-01-26T07:22:08.833Z,3923.00
2023-01-26T07:23:08.912Z,3958.00
2023-01-26T07:24:08.992Z,3956.00
2023-01-26T07:25:09.974Z,3923.00
2023-01-26T07:26:09.149Z,4063.00
2023-01-26T07:27:09.289Z,4227.00
2023-01-26T07:28:09.303Z,4263.00
2023-01-26T07:29:09.540Z,4037.00
2023-01-26T07:30:10.277Z,3971.00
2023-01-26T07:31:10.101Z,4590.00
2023-01-26T07:32:10.061Z,4209.00
2023-01-26T07:33:10.152Z,4275.00
2023-01-26T07:34:10.217Z,4099.00
2023-01-26T07:35:10.283Z,3970.00
2023-01-26T07:36:10.360Z,3946.00
2023-01-26T07:37:10.414Z,3907.00
2023-01-26T07:38:10.468Z,4048.00
2023-01-26T07:39:10.541Z,4264.00
2023-01-26T07:40:10.918Z,4303.00
2023-01-26T07:41:10.672Z,4250.00
2023-01-26T07:42:10.710Z,4038.00
2023-01-26T07:43:10.758Z,3973.00
2023-01-26T07:44:10.855Z,3911.00
2023-01-26T07:45:10.896Z,3835.00
2023-01-26T07:46:11.033Z,3840.00
2023-01-26T07:47:11.023Z,3870.00
2023-01-26T07:48:11.088Z,3871.00
2023-01-26T07:49:11.167Z,3850.00
2023-01-26T07:50:11.467Z,3854.00
2023-01-26T07:51:11.422Z,3905.00
2023-01-26T07:52:11.367Z,4032.00
2023-01-26T07:53:11.425Z,4052.00
2023-01-26T07:54:11.455Z,3999.00
2023-01-26T07:55:11.781Z,3996.00
2023-01-26T07:56:12.057Z,3954.00
2023-01-26T07:57:12.351Z,4002.00
2023-01-26T07:58:12.631Z,4009.00
2023-01-26T07:59:12.907Z,3922.00
2023-01-26T08:00:13.442Z,4055.00
2023-01-26T08:01:13.437Z,4194.00
2023-01-26T08:02:13.652Z,3987.00
2023-01-26T08:03:13.885Z,3877.00
2023-01-26T08:04:14.098Z,3761.00
2023-01-26T08:05:14.447Z,3751.00
2023-01-26T08:06:15.727Z,3718.00
2023-01-26T08:07:14.929Z,3717.00
2023-01-26T08:08:15.164Z,3718.00
2023-01-26T08:09:15.481Z,3753.00
2023-01-26T08:10:15.775Z,3751.00
2023-01-26T08:11:16.074Z,3729.00
2023-01-26T08:12:16.361Z,3695.00
2023-01-26T08:14:16.702Z,3692.00
2023-01-26T08:18:16.931Z,3641.00
2023-01-26T08:19:17.026Z,3581.00
2023-01-26T08:52:21.412Z,3446.00
2023-01-26T08:53:21.506Z,3401.00
2023-01-26T08:54:21.594Z,3361.00
2023-01-26T08:55:21.641Z,3370.00
2023-01-26T08:56:21.712Z,3361.00
2023-01-26T08:57:21.761Z,3354.00
2023-01-26T08:58:21.809Z,3369.00
2023-01-26T08:59:21.850Z,3302.00
2023-01-26T09:01:22.012Z,3328.00
2023-01-26T09:02:22.244Z,3295.00
2023-01-26T09:03:22.103Z,3318.00
2023-01-26T09:04:22.095Z,3260.00
2023-01-26T09:05:22.957Z,3277.00
2023-01-26T09:06:22.223Z,3285.00
2023-01-26T09:07:22.284Z,3273.00
2023-01-26T09:08:22.345Z,3271.00
2023-01-26T09:09:22.394Z,3274.00
2023-01-26T09:10:22.466Z,3263.00
2023-01-26T09:11:22.515Z,3242.00
2023-01-26T09:12:22.552Z,3250.00
2023-01-26T09:13:22.979Z,3234.00
2023-01-26T09:14:22.652Z,3158.00
2023-01-26T09:15:22.699Z,3209.00
2023-01-26T09:16:22.722Z,3195.00
2023-01-26T09:17:22.732Z,3092.00
2023-01-26T09:18:23.378Z,3117.00
2023-01-26T09:19:22.814Z,3060.00
2023-01-26T09:20:22.824Z,3078.00
2023-01-26T09:21:22.873Z,3110.00
2023-01-26T09:22:22.887Z,3157.00
2023-01-26T09:23:22.912Z,3071.00
2023-01-26T09:24:23.006Z,3057.00
2023-01-26T09:25:23.100Z,3068.00
2023-01-26T09:27:23.136Z,3079.00
2023-01-26T09:28:23.294Z,3079.00
2023-01-26T09:29:23.233Z,3014.00
2023-01-26T09:30:23.295Z,2981.00
2023-01-26T09:32:23.347Z,3078.00
2023-01-26T09:33:23.409Z,3090.00
2023-01-26T09:34:23.372Z,3067.00
2023-01-26T09:35:23.412Z,3046.00
2023-01-26T09:36:23.555Z,3067.00
2023-01-26T09:55:23.763Z,2316.00
2023-01-26T09:56:23.783Z,2349.00
2023-01-26T09:57:24.030Z,2417.00
2023-01-26T09:58:24.243Z,2297.00
2023-01-26T09:59:24.253Z,2236.00
2023-01-26T10:00:24.249Z,2171.00
2023-01-26T10:02:24.324Z,2380.00
2023-01-26T10:03:24.299Z,2537.00
2023-01-26T11:38:31.643Z,902.00
2023-01-26T11:39:31.909Z,965.00
2023-01-26T11:51:34.762Z,1221.00
2023-01-26T11:52:35.000Z,1183.00
2023-01-26T11:53:35.261Z,1134.00
2023-01-26T11:54:35.482Z,1108.00
2023-01-26T11:55:35.722Z,1189.00
2023-01-26T11:56:35.958Z,1117.00
2023-01-26T11:57:36.192Z,1161.00
2023-01-26T11:58:36.436Z,1092.00
2023-01-26T11:59:36.968Z,1052.00
2023-01-26T12:00:36.855Z,1057.00
2023-01-26T12:01:37.035Z,1071.00
2023-01-26T12:02:37.232Z,1056.00
2023-01-26T12:03:37.568Z,1164.00
2023-01-26T12:20:41.574Z,892.00
2023-01-26T12:21:41.814Z,820.00
2023-01-26T12:22:42.034Z,957.00
2023-01-26T12:23:42.257Z,1052.00
2023-01-26T12:25:16.123Z,1252.00
2023-01-26T12:25:43.496Z,1169.00
2023-01-26T12:26:42.452Z,1023.00
2023-01-26T12:27:42.442Z,827.00
2023-01-26T12:28:42.441Z,871.00
2023-01-26T12:29:42.447Z,825.00
2023-01-26T12:30:42.510Z,853.00
2023-01-26T12:31:42.461Z,1033.00
2023-01-26T12:32:42.437Z,1095.00
2023-01-26T12:33:42.464Z,1279.00
2023-01-26T12:34:42.470Z,1195.00
2023-01-26T12:35:42.437Z,1291.00
2023-01-26T12:36:42.493Z,1378.00
2023-01-26T12:37:42.548Z,1096.00
2023-01-26T12:38:43.480Z,710.00
2023-01-26T12:39:42.680Z,610.00
2023-01-26T12:40:42.741Z,517.00
2023-01-26T12:41:42.992Z,500.00
2023-01-26T12:42:42.817Z,517.00
2023-01-26T12:43:42.817Z,539.00
2023-01-26T12:44:42.881Z,544.00
2023-01-26T12:45:42.957Z,559.00
2023-01-26T12:46:43.069Z,554.00
2023-01-26T12:47:43.173Z,565.00
2023-01-26T12:48:43.186Z,630.00
2023-01-26T12:49:43.243Z,591.00
2023-01-26T12:50:43.221Z,578.00
2023-01-26T12:51:43.247Z,619.00
2023-01-26T12:52:43.317Z,621.00
2023-01-26T12:53:43.397Z,591.00
2023-01-26T12:54:43.443Z,572.00
2023-01-26T12:55:43.538Z,622.00
2023-01-26T12:56:43.562Z,649.00
2023-01-26T12:57:43.622Z,641.00
2023-01-26T12:58:43.675Z,721.00
2023-01-26T12:59:47.915Z,752.00
2023-01-26T13:00:44.669Z,721.00
2023-01-26T13:01:43.703Z,644.00
2023-01-26T13:02:43.677Z,627.00
2023-01-26T13:03:43.690Z,622.00
2023-01-26T13:04:43.635Z,560.00
2023-01-26T13:05:43.616Z,545.00
2023-01-26T13:06:43.616Z,518.00
2023-01-26T13:07:43.619Z,512.00
2023-01-26T13:08:43.621Z,535.00
2023-01-26T13:09:43.657Z,549.00
2023-01-26T13:10:44.397Z,517.00
2023-01-26T13:11:43.636Z,503.00
2023-01-26T13:12:43.622Z,511.00
2023-01-26T13:13:43.621Z,546.00
2023-01-26T13:14:43.688Z,571.00
2023-01-26T13:15:43.743Z,576.00
2023-01-26T13:16:43.693Z,580.00
2023-01-26T13:17:43.712Z,581.00
2023-01-26T13:18:43.728Z,559.00
2023-01-26T13:19:43.792Z,580.00
2023-01-26T13:20:43.783Z,592.00
2023-01-26T13:21:43.782Z,579.00
2023-01-26T13:22:43.800Z,607.00
2023-01-26T13:23:44.483Z,606.00
2023-01-26T13:24:43.810Z,594.00
2023-01-26T13:25:44.481Z,506.00
2023-01-26T13:26:43.843Z,563.00
2023-01-26T13:27:43.840Z,604.00
2023-01-26T13:28:43.841Z,608.00
2023-01-26T13:29:43.832Z,561.00
2023-01-26T13:30:43.849Z,565.00
2023-01-26T13:31:43.860Z,585.00
2023-01-26T13:32:43.811Z,597.00
2023-01-26T13:33:43.814Z,549.00
2023-01-26T13:34:43.801Z,539.00
2023-01-26T13:35:43.822Z,554.00
2023-01-26T13:36:43.927Z,591.00
2023-01-26T13:37:44.907Z,574.00
2023-01-26T13:38:44.137Z,530.00
2023-01-26T13:39:44.139Z,540.00
2023-01-26T13:40:44.139Z,500.00
2023-01-26T13:41:44.162Z,500.00
2023-01-26T13:42:44.166Z,551.00
2023-01-26T13:43:44.144Z,578.00
2023-01-26T13:44:44.172Z,592.00
2023-01-26T13:45:44.199Z,581.00
2023-01-26T13:46:44.326Z,600.00
2023-01-26T13:47:44.213Z,628.00
2023-01-26T14:22:51.415Z,609.00
2023-01-26T14:23:51.672Z,665.00
2023-01-26T14:24:51.855Z,646.00
2023-01-26T14:25:52.044Z,641.00
2023-01-26T14:36:54.330Z,889.00
2023-01-26T14:37:54.499Z,879.00
2023-01-26T14:38:54.703Z,1006.00
2023-01-26T14:39:54.877Z,1255.00
2023-01-26T14:40:55.134Z,1350.00
2023-01-26T14:41:55.314Z,1276.00
2023-01-26T14:42:55.520Z,1174.00
2023-01-26T14:43:58.659Z,1168.00
2023-01-26T14:44:55.736Z,1063.00
2023-01-26T14:45:55.712Z,960.00
2023-01-26T14:46:55.739Z,909.00
2023-01-26T14:47:56.490Z,973.00
2023-01-26T14:48:55.610Z,949.00
2023-01-26T14:49:55.611Z,958.00
2023-01-26T14:50:55.567Z,950.00
2023-01-26T14:51:55.546Z,867.00
2023-01-26T14:52:55.538Z,852.00
2023-01-26T14:53:55.523Z,773.00
2023-01-26T14:54:55.501Z,915.00
2023-01-26T14:55:55.484Z,864.00
2023-01-26T14:56:55.477Z,817.00
2023-01-26T14:57:55.490Z,925.00
2023-01-26T14:58:55.483Z,864.00
2023-01-26T14:59:55.458Z,942.00
2023-01-26T15:00:55.445Z,914.00
2023-01-26T15:01:55.493Z,893.00
2023-01-26T15:02:55.419Z,821.00
2023-01-26T15:03:55.403Z,885.00
2023-01-26T15:04:55.408Z,938.00
2023-01-26T15:05:55.369Z,910.00
2023-01-26T15:06:55.355Z,893.00
2023-01-26T15:07:55.353Z,925.00
2023-01-26T15:08:55.331Z,989.00
2023-01-26T15:09:55.299Z,1061.00
2023-01-26T15:10:55.289Z,1028.00
2023-01-26T15:11:55.277Z,1046.00
2023-01-26T15:12:55.244Z,1109.00
2023-01-26T15:13:55.345Z,1120.00
2023-01-26T15:14:55.209Z,1149.00
2023-01-26T15:15:55.207Z,1018.00
2023-01-26T15:16:55.190Z,951.00
2023-01-26T15:17:55.178Z,978.00
2023-01-26T15:18:55.171Z,992.00
2023-01-26T15:19:55.160Z,1116.00
2023-01-26T15:20:55.165Z,1212.00
2023-01-26T15:57:01.565Z,1336.00
2023-01-26T15:58:01.862Z,1362.00
2023-01-26T15:59:02.038Z,1408.00
2023-01-26T16:00:02.216Z,1376.00
2023-01-26T16:01:02.478Z,1412.00
2023-01-26T16:02:02.666Z,1409.00
2023-01-26T16:03:02.860Z,1408.00
2023-01-26T16:04:03.064Z,1558.00
2023-01-26T16:05:03.264Z,1566.00
2023-01-26T16:06:03.449Z,1605.00
2023-01-26T16:07:03.637Z,1518.00
2023-01-26T16:29:05.177Z,1849.00
2023-01-26T16:30:05.117Z,1744.00
2023-01-26T16:31:05.299Z,1810.00
2023-01-26T16:32:05.176Z,1789.00
2023-01-26T16:33:05.104Z,1839.00
2023-01-26T16:34:05.134Z,1907.00
2023-01-26T16:35:05.168Z,1961.00
2023-01-26T16:36:05.201Z,1958.00
2023-01-26T16:37:05.197Z,1774.00
2023-01-26T16:38:05.223Z,1530.00
2023-01-26T16:39:05.255Z,1476.00
2023-01-26T17:51:11.537Z,1268.00
2023-01-26T18:36:21.601Z,1269.00
2023-01-26T18:37:21.886Z,1261.00
2023-01-26T18:38:22.059Z,1352.00
2023-01-26T18:39:22.294Z,1255.00
2023-01-26T18:40:22.607Z,1283.00
2023-01-26T18:41:22.769Z,1211.00
2023-01-26T18:42:23.069Z,1214.00
2023-01-26T18:43:23.240Z,1217.00
2023-01-26T18:44:25.601Z,1286.00
2023-01-26T18:45:23.464Z,1309.00
2023-01-26T18:46:23.410Z,1236.00
2023-01-26T18:47:23.396Z,1141.00
2023-01-26T18:48:23.352Z,1248.00
2023-01-26T18:49:23.323Z,1314.00
2023-01-26T18:50:23.305Z,1244.00
2023-01-26T18:51:23.292Z,1247.00
2023-01-26T18:52:23.243Z,1329.00
2023-01-26T18:53:23.200Z,1305.00
2023-01-26T18:54:23.170Z,1332.00
2023-01-26T18:55:23.152Z,1330.00
2023-01-26T18:56:23.132Z,1267.00
2023-01-26T18:57:23.084Z,1262.00
2023-01-26T18:58:23.059Z,1261.00
2023-01-26T18:59:23.035Z,1332.00
2023-01-26T19:00:23.017Z,1493.00
2023-01-26T19:01:23.101Z,1637.00
2023-01-26T19:02:22.967Z,1768.00
2023-01-26T19:03:22.911Z,1819.00
2023-01-26T19:04:22.875Z,1654.00
2023-01-26T19:05:22.855Z,1502.00
2023-01-26T19:06:22.842Z,1323.00
2023-01-26T19:07:22.782Z,1282.00
2023-01-26T19:08:22.822Z,1213.00
2023-01-26T19:09:22.723Z,1150.00
2023-01-26T19:10:22.687Z,1083.00
2023-01-26T19:11:22.640Z,961.00
2023-01-26T19:24:22.186Z,585.00
2023-01-26T19:25:22.116Z,575.00
2023-01-26T19:26:22.085Z,583.00
2023-01-26T19:27:22.041Z,574.00
2023-01-26T19:28:22.027Z,597.00
2023-01-26T19:29:21.980Z,661.00
2023-01-26T19:30:21.953Z,694.00
2023-01-26T19:31:21.977Z,717.00
2023-01-26T19:32:21.891Z,747.00
2023-01-26T19:33:21.860Z,900.00
2023-01-26T19:34:21.837Z,1040.00
2023-01-26T19:35:21.813Z,1230.00
2023-01-26T19:36:21.854Z,1313.00
2023-01-26T19:37:21.868Z,1263.00
2023-01-26T19:38:21.892Z,1280.00
2023-01-26T19:39:21.901Z,1293.00
2023-01-26T19:40:21.931Z,1449.00
2023-01-26T19:41:21.981Z,1610.00
2023-01-26T19:42:21.963Z,1648.00
2023-01-26T19:43:21.995Z,1566.00
2023-01-26T19:44:22.018Z,1543.00
2023-01-26T19:45:22.038Z,1564.00
2023-01-26T19:46:22.090Z,1584.00
2023-01-26T19:47:22.127Z,1488.00
2023-01-26T19:48:22.144Z,1427.00
2023-01-26T19:49:22.189Z,1381.00
2023-01-26T19:50:22.221Z,1305.00
2023-01-26T19:51:22.239Z,1272.00
2023-01-26T19:52:22.381Z,1292.00
2023-01-26T19:53:22.580Z,1299.00
2023-01-26T19:54:22.843Z,1160.00
2023-01-26T19:55:23.077Z,1025.00
2023-01-26T19:56:23.266Z,873.00
2023-01-26T19:57:23.464Z,799.00
2023-01-26T20:07:21.425Z,507.00
2023-01-26T20:08:21.646Z,508.00
2023-01-26T20:09:21.859Z,516.00
2023-01-26T20:18:22.836Z,1110.00
2023-01-26T20:19:22.809Z,1051.00
2023-01-26T20:20:22.807Z,923.00
2023-01-26T20:21:22.837Z,856.00
2023-01-26T20:22:22.782Z,869.00
2023-01-26T20:23:22.770Z,941.00
2023-01-26T20:24:22.781Z,974.00
2023-01-26T20:25:22.755Z,1034.00
2023-01-26T20:26:22.747Z,1012.00
2023-01-26T20:27:22.719Z,946.00
2023-01-26T21:18:24.539Z,515.00
2023-01-26T21:20:24.600Z,545.00
2023-01-26T21:21:24.642Z,539.00
2023-01-26T21:22:24.669Z,531.00
2023-01-26T21:23:24.695Z,500.00
2023-01-26T21:24:24.767Z,517.00
2023-01-26T21:25:24.745Z,527.00
2023-01-26T21:26:24.785Z,521.00
2023-01-26T21:27:24.817Z,519.00
2023-01-26T21:28:24.827Z,500.00
2023-01-26T21:29:24.853Z,498.00
2023-01-26T21:30:24.883Z,500.00
2023-01-26T21:31:25.005Z,505.00
2023-01-26T21:32:24.955Z,521.00
2023-01-26T21:33:24.983Z,516.00
2023-01-26T21:35:25.049Z,515.00
2023-01-26T21:36:25.088Z,551.00
2023-01-26T21:37:25.111Z,555.00
2023-01-26T21:38:25.130Z,581.00
2023-01-26T21:39:25.147Z,571.00
2023-01-26T21:40:25.171Z,571.00
2023-01-26T21:41:25.208Z,627.00
2023-01-26T21:42:25.208Z,948.00
2023-01-26T21:43:25.235Z,1029.00
2023-01-26T21:44:25.249Z,983.00
2023-01-26T21:45:25.309Z,913.00
2023-01-26T21:46:25.298Z,865.00
2023-01-26T21:47:25.323Z,785.00
2023-01-26T21:48:25.335Z,726.00
2023-01-26T21:49:25.364Z,741.00
2023-01-26T21:50:25.373Z,709.00
2023-01-26T21:51:26.233Z,696.00
2023-01-26T21:52:25.416Z,651.00
2023-01-26T21:53:25.428Z,680.00
2023-01-26T21:54:25.441Z,679.00
2023-01-26T21:55:25.475Z,564.00
2023-01-26T21:56:25.562Z,543.00
2023-01-26T21:57:25.511Z,544.00
2023-01-26T21:58:25.531Z,521.00
2023-01-26T21:59:25.544Z,508.00
2023-01-26T22:00:25.551Z,470.00
2023-01-26T22:01:25.577Z,400.00
2023-01-26T22:02:25.628Z,400.00
2023-01-26T22:03:25.616Z,403.00
2023-01-26T22:04:25.717Z,450.00
2023-01-26T22:05:25.643Z,501.00
2023-01-26T22:06:25.673Z,508.00
2023-01-26T22:07:25.693Z,502.00
2023-01-26T22:08:25.711Z,501.00
2023-01-26T22:09:25.736Z,504.00
2023-01-26T22:10:25.767Z,503.00
2023-01-26T22:11:25.790Z,540.00
2023-01-26T22:12:25.847Z,629.00
2023-01-26T22:13:25.867Z,628.00
2023-01-26T22:14:25.896Z,590.00
2023-01-26T22:15:25.906Z,510.00
2023-01-26T22:16:25.998Z,525.00
2023-01-26T22:17:25.947Z,507.00
2023-01-26T22:18:25.967Z,501.00
2023-01-26T22:19:25.997Z,519.00
2023-01-26T22:20:26.036Z,570.00
2023-01-26T22:21:26.052Z,557.00
2023-01-26T22:22:26.109Z,541.00
2023-01-26T22:23:26.144Z,522.00
2023-01-26T22:24:26.198Z,540.00
2023-01-26T22:25:26.220Z,559.00
2023-01-26T22:26:26.258Z,583.00
2023-01-26T22:27:26.304Z,571.00
2023-01-26T22:28:26.352Z,557.00
2023-01-26T22:29:26.382Z,554.00
2023-01-26T22:30:26.401Z,552.00
2023-01-26T22:31:26.512Z,547.00
2023-01-26T22:32:26.469Z,555.00
2023-01-26T22:33:26.508Z,589.00
2023-01-26T22:34:26.536Z,588.00
2023-01-26T22:35:26.578Z,630.00
2023-01-26T22:36:26.612Z,649.00
2023-01-26T22:37:26.668Z,651.00
2023-01-26T22:38:26.712Z,655.00
2023-01-26T22:39:26.749Z,629.00
2023-01-26T22:40:26.801Z,648.00
2023-01-26T22:41:26.840Z,626.00
2023-01-26T22:42:26.857Z,638.00
2023-01-26T22:43:26.893Z,821.00
2023-01-26T22:44:26.904Z,1150.00
2023-01-26T22:45:26.947Z,1057.00
2023-01-26T22:46:26.971Z,962.00
2023-01-26T22:47:27.002Z,823.00
2023-01-26T22:48:27.043Z,738.00
2023-01-26T22:49:27.063Z,858.00
2023-01-26T22:50:27.107Z,780.00
2023-01-26T22:51:27.135Z,646.00
2023-01-26T22:52:27.157Z,712.00
2023-01-26T22:53:27.198Z,775.00
2023-01-26T22:54:27.224Z,781.00
2023-01-26T22:55:27.260Z,806.00
2023-01-26T22:56:27.296Z,879.00
2023-01-26T22:57:27.331Z,1097.00
2023-01-26T22:58:27.385Z,1314.00
2023-01-26T22:59:27.440Z,1348.00
2023-01-26T23:21:28.265Z,1338.00
2023-01-26T23:45:31.587Z,1162.00
2023-01-26T23:46:31.927Z,1170.00
2023-01-26T23:47:32.118Z,1095.00
2023-01-26T23:48:32.234Z,1135.00
2023-01-26T23:49:32.440Z,1123.00
2023-01-26T23:50:32.663Z,1067.00
2023-01-26T23:51:32.918Z,952.00
2023-01-26T23:52:33.098Z,971.00
2023-01-26T23:53:33.315Z,1019.00
2023-01-26T23:54:33.514Z,1011.00
2023-01-26T23:55:33.720Z,964.00
2023-01-26T23:56:33.935Z,1017.00
2023-01-26T23:57:34.152Z,1004.00
2023-01-26T23:58:34.358Z,994.00
2023-01-26T23:59:34.583Z,956.00
